createdAt,value
2017-12-09T00:00:39.585Z,11.73
2017-12-09T00:03:10.012Z,12.03
2017-12-09T00:05:40.762Z,12.07
2017-12-09T00:08:11.197Z,13.13
2017-12-09T00:10:41.631Z,12.37
2017-12-09T00:13:12.462Z,13.67
2017-12-09T00:15:42.895Z,12.73
2017-12-09T00:18:13.681Z,12.70
2017-12-09T00:20:44.142Z,13.77
2017-12-09T00:23:14.598Z,14.27
2017-12-09T00:25:45.240Z,14.03
2017-12-09T00:28:16.507Z,13.50
2017-12-09T00:30:47.275Z,13.70
2017-12-09T00:33:17.695Z,15.10
2017-12-09T00:35:48.104Z,13.60
2017-12-09T00:38:18.522Z,14.27
2017-12-09T00:40:49.277Z,13.77
2017-12-09T00:43:20.011Z,13.63
2017-12-09T00:45:50.472Z,14.37
2017-12-09T00:48:20.890Z,13.30
2017-12-09T00:50:51.336Z,13.53
2017-12-09T00:53:21.775Z,15.40
2017-12-09T00:55:53.021Z,12.20
2017-12-09T00:58:25.252Z,12.60
2017-12-09T01:00:58.997Z,11.70
2017-12-09T01:03:30.173Z,11.50
2017-12-09T01:06:00.664Z,11.50
2017-12-09T01:08:31.864Z,10.63
2017-12-09T01:11:02.298Z,10.20
2017-12-09T01:13:33.531Z,10.00
2017-12-09T01:16:14.869Z,10.90
2017-12-09T01:18:56.718Z,11.07
2017-12-09T01:21:27.957Z,11.67
2017-12-09T01:23:58.374Z,9.87
2017-12-09T01:26:29.661Z,10.07
2017-12-09T01:29:00.080Z,9.67
2017-12-09T01:31:31.030Z,8.93
2017-12-09T01:34:01.459Z,8.87
2017-12-09T01:36:32.917Z,9.20
2017-12-09T01:39:04.166Z,9.20
2017-12-09T01:41:35.719Z,8.90
2017-12-09T01:44:07.424Z,10.90
2017-12-09T01:46:37.874Z,7.70
2017-12-09T01:49:08.410Z,9.20
2017-12-09T01:51:38.794Z,9.07
2017-12-09T01:54:09.588Z,7.83
2017-12-09T01:56:40.856Z,9.30
2017-12-09T01:59:11.309Z,9.03
2017-12-09T02:01:42.137Z,9.23
2017-12-09T02:04:12.905Z,8.67
2017-12-09T02:06:45.998Z,8.30
2017-12-09T02:12:47.677Z,8.20
2017-12-09T02:15:18.367Z,8.80
2017-12-09T02:17:48.854Z,9.20
2017-12-09T02:20:19.300Z,9.80
2017-12-09T02:22:49.772Z,9.63
2017-12-09T02:25:21.005Z,9.63
2017-12-09T02:27:51.663Z,9.90
2017-12-09T02:30:23.480Z,9.70
2017-12-09T02:32:54.244Z,10.63
2017-12-09T02:35:25.802Z,10.77
2017-12-09T02:37:57.075Z,10.77
2017-12-09T02:40:27.489Z,11.80
2017-12-09T02:42:58.867Z,11.17
2017-12-09T02:45:29.813Z,10.80
2017-12-09T02:48:00.316Z,10.57
2017-12-09T02:50:31.128Z,12.03
2017-12-09T02:53:02.391Z,12.07
2017-12-09T02:55:32.872Z,11.87
2017-12-09T02:58:03.916Z,11.20
2017-12-09T03:00:34.369Z,12.17
2017-12-09T03:03:06.025Z,11.40
2017-12-09T03:05:37.219Z,11.53
2017-12-09T03:08:08.038Z,12.03
2017-12-09T03:10:38.562Z,12.40
2017-12-09T03:13:09.025Z,11.30
2017-12-09T03:15:39.827Z,11.93
2017-12-09T03:18:10.792Z,12.10
2017-12-09T03:20:41.223Z,12.30
2017-12-09T03:23:12.040Z,11.87
2017-12-09T03:25:43.078Z,12.70
2017-12-09T03:28:13.961Z,11.93
2017-12-09T03:30:44.443Z,12.27
2017-12-09T03:33:15.266Z,12.80
2017-12-09T03:35:45.768Z,12.60
2017-12-09T03:38:17.312Z,15.03
2017-12-09T03:40:48.549Z,12.10
2017-12-09T03:43:19.359Z,13.27
2017-12-09T03:45:53.928Z,14.40
2017-12-09T03:48:26.086Z,14.10
2017-12-09T03:50:59.331Z,14.60
2017-12-09T03:53:35.460Z,15.97
2017-12-09T03:56:05.975Z,12.90
2017-12-09T03:58:37.562Z,13.97
2017-12-09T04:01:08.017Z,14.03
2017-12-09T04:03:38.862Z,15.20
2017-12-09T04:06:09.602Z,15.53
2017-12-09T04:08:41.343Z,16.60
2017-12-09T04:11:12.074Z,15.20
2017-12-09T04:13:43.384Z,15.77
2017-12-09T04:16:17.582Z,16.00
2017-12-09T04:18:49.848Z,16.87
2017-12-09T04:21:23.295Z,17.27
2017-12-09T04:23:54.846Z,16.43
2017-12-09T04:26:26.458Z,15.80
2017-12-09T04:28:59.322Z,16.80
2017-12-09T04:31:32.370Z,18.87
2017-12-09T04:34:04.247Z,18.00
2017-12-09T04:36:34.711Z,18.77
2017-12-09T04:39:06.177Z,18.90
2017-12-09T04:41:37.107Z,16.80
2017-12-09T04:44:08.373Z,16.30
2017-12-09T04:46:39.136Z,16.97
2017-12-09T04:49:09.630Z,15.53
2017-12-09T04:51:40.413Z,17.27
2017-12-09T04:54:10.896Z,17.03
2017-12-09T04:56:41.470Z,16.57
2017-12-09T04:59:11.978Z,17.73
2017-12-09T05:01:42.812Z,16.47
2017-12-09T05:04:13.844Z,16.30
2017-12-09T05:06:44.316Z,14.63
2017-12-09T05:09:14.900Z,16.57
2017-12-09T05:11:45.369Z,19.17
2017-12-09T05:14:15.832Z,17.33
2017-12-09T05:16:46.347Z,17.80
2017-12-09T05:19:17.645Z,18.40
2017-12-09T05:21:49.508Z,19.13
2017-12-09T05:24:20.087Z,18.30
2017-12-09T05:26:51.564Z,18.07
2017-12-09T05:29:22.071Z,20.53
2017-12-09T05:31:53.309Z,19.60
2017-12-09T05:34:24.549Z,20.23
2017-12-09T05:36:55.929Z,19.80
2017-12-09T05:39:26.602Z,21.73
2017-12-09T05:41:57.417Z,19.70
2017-12-09T05:44:27.944Z,19.33
2017-12-09T05:46:58.442Z,20.30
2017-12-09T05:49:28.991Z,17.70
2017-12-09T05:51:59.698Z,17.17
2017-12-09T05:54:31.744Z,16.90
2017-12-09T05:57:02.355Z,17.03
2017-12-09T05:59:32.931Z,19.23
2017-12-09T06:02:04.200Z,19.10
2017-12-09T06:04:35.025Z,19.10
2017-12-09T06:07:05.547Z,20.23
2017-12-09T06:09:36.381Z,20.20
2017-12-09T06:12:06.924Z,17.87
2017-12-09T06:14:37.436Z,20.23
2017-12-09T06:17:08.344Z,18.00
2017-12-09T06:19:38.886Z,19.03
2017-12-09T06:22:10.340Z,17.00
2017-12-09T06:24:41.598Z,16.40
2017-12-09T06:27:13.117Z,16.60
2017-12-09T06:29:43.995Z,16.67
2017-12-09T06:32:14.506Z,14.77
2017-12-09T06:34:45.806Z,16.67
2017-12-09T06:37:17.094Z,14.97
2017-12-09T06:39:51.639Z,16.03
2017-12-09T06:42:22.538Z,15.30
2017-12-09T06:44:53.103Z,16.53
2017-12-09T06:47:23.643Z,16.37
2017-12-09T06:49:54.153Z,13.60
2017-12-09T06:52:25.422Z,14.43
2017-12-09T06:54:56.213Z,13.47
2017-12-09T06:57:26.896Z,13.33
2017-12-09T06:59:57.408Z,15.10
2017-12-09T07:02:28.240Z,14.40
2017-12-09T07:04:58.764Z,13.30
2017-12-09T07:07:30.072Z,14.00
2017-12-09T07:10:01.719Z,12.40
2017-12-09T07:12:32.197Z,14.20
2017-12-09T07:15:03.476Z,13.20
2017-12-09T07:17:33.922Z,23.40
2017-12-09T07:20:04.421Z,22.07
2017-12-09T07:22:35.432Z,15.30
2017-12-09T07:25:06.697Z,14.30
2017-12-09T07:27:37.441Z,11.67
2017-12-09T07:30:07.952Z,13.33
2017-12-09T07:32:38.463Z,10.30
2017-12-09T07:35:09.744Z,15.40
2017-12-09T07:37:40.219Z,11.43
2017-12-09T07:40:11.103Z,14.63
2017-12-09T07:42:41.582Z,13.60
2017-12-09T07:45:12.575Z,13.27
2017-12-09T07:47:43.084Z,12.23
2017-12-09T07:50:14.398Z,12.50
2017-12-09T07:52:44.907Z,11.13
2017-12-09T07:55:15.442Z,11.10
2017-12-09T07:57:46.362Z,11.40
2017-12-09T08:00:18.619Z,11.83
2017-12-09T08:02:49.144Z,12.13
2017-12-09T08:05:19.673Z,12.20
2017-12-09T08:07:50.157Z,13.27
2017-12-09T08:10:21.038Z,12.67
2017-12-09T08:12:51.645Z,11.50
2017-12-09T08:15:23.280Z,11.33
2017-12-09T08:17:53.829Z,11.17
2017-12-09T08:20:25.100Z,11.87
2017-12-09T08:22:55.660Z,11.10
2017-12-09T08:25:26.228Z,11.87
2017-12-09T08:27:57.850Z,13.37
2017-12-09T08:30:28.305Z,13.90
2017-12-09T08:33:00.149Z,13.73
2017-12-09T08:35:30.960Z,14.27
2017-12-09T10:23:20.724Z,4.53
2017-12-09T10:25:51.586Z,3.37
2017-12-09T10:28:22.430Z,3.60
2017-12-09T10:30:52.875Z,3.00
2017-12-09T10:33:23.357Z,3.30
2017-12-09T10:35:53.843Z,3.43
2017-12-09T10:38:24.659Z,3.93
2017-12-09T10:40:55.316Z,3.83
2017-12-09T10:43:27.615Z,2.93
2017-12-09T10:45:58.132Z,4.40
2017-12-09T10:48:33.503Z,7.70
2017-12-09T10:51:05.990Z,6.07
2017-12-09T10:53:36.463Z,3.40
2017-12-09T10:56:07.977Z,3.27
2017-12-09T10:58:38.414Z,3.60
2017-12-09T11:01:08.843Z,3.60
2017-12-09T11:03:39.604Z,3.47
2017-12-09T11:06:10.843Z,3.13
2017-12-09T11:08:42.540Z,3.70
2017-12-09T11:11:13.005Z,4.40
2017-12-09T11:13:43.910Z,4.23
2017-12-09T11:16:14.392Z,4.10
2017-12-09T11:18:45.664Z,3.73
2017-12-09T11:21:16.120Z,3.27
2017-12-09T11:23:46.598Z,3.60
2017-12-09T11:26:17.986Z,3.27
2017-12-09T11:28:48.466Z,3.33
2017-12-09T11:31:19.717Z,3.63
2017-12-09T11:33:50.973Z,3.33
2017-12-09T11:36:21.513Z,3.47
2017-12-09T11:38:52.178Z,3.60
2017-12-09T11:41:22.617Z,3.13
2017-12-09T11:43:53.162Z,3.50
2017-12-09T11:46:23.640Z,4.20
2017-12-09T11:48:54.142Z,4.07
2017-12-09T11:51:25.860Z,4.10
2017-12-09T11:53:56.346Z,3.60
2017-12-09T11:56:27.133Z,3.80
2017-12-09T11:58:57.581Z,3.43
2017-12-09T12:01:28.831Z,3.50
2017-12-09T12:04:00.100Z,3.87
2017-12-09T12:06:30.589Z,4.53
2017-12-09T12:09:02.138Z,4.27
2017-12-09T12:11:32.586Z,3.87
2017-12-09T12:14:05.860Z,3.90
2017-12-09T12:16:36.318Z,3.70
2017-12-09T12:19:07.578Z,4.00
2017-12-09T12:21:38.060Z,4.37
2017-12-09T12:24:08.567Z,4.17
2017-12-09T12:26:39.308Z,5.30
2017-12-09T12:29:09.850Z,5.00
2017-12-09T12:31:40.366Z,4.57
2017-12-09T12:34:10.900Z,4.33
2017-12-09T12:36:41.393Z,5.07
2017-12-09T12:39:12.098Z,5.50
2017-12-09T12:41:43.730Z,5.20
2017-12-09T12:44:15.971Z,5.57
2017-12-09T12:46:50.685Z,6.50
2017-12-09T12:49:23.068Z,5.40
2017-12-09T12:51:54.651Z,5.33
2017-12-09T12:54:27.773Z,5.83
2017-12-09T12:56:59.257Z,6.00
2017-12-09T12:59:30.359Z,5.20
2017-12-09T13:02:01.231Z,4.87
2017-12-09T13:04:34.926Z,5.37
2017-12-09T13:07:07.958Z,5.40
2017-12-09T13:09:39.107Z,5.57
2017-12-09T13:12:09.676Z,5.50
2017-12-09T13:14:40.624Z,5.33
2017-12-09T13:17:12.051Z,5.77
2017-12-09T13:19:44.726Z,5.17
2017-12-09T13:22:16.248Z,5.67
2017-12-09T13:24:48.558Z,5.80
2017-12-09T13:27:20.631Z,6.37
2017-12-09T13:29:52.670Z,5.70
2017-12-09T13:32:25.335Z,5.43
2017-12-09T13:34:55.933Z,5.90
2017-12-09T13:37:26.795Z,6.13
2017-12-09T13:40:03.394Z,7.07
2017-12-09T13:42:33.972Z,6.40
2017-12-09T13:45:05.597Z,5.30
2017-12-09T13:47:36.989Z,6.60
2017-12-09T13:50:07.602Z,6.53
2017-12-09T13:52:38.185Z,6.57
2017-12-09T13:55:09.883Z,6.90
2017-12-09T13:57:41.317Z,7.20
2017-12-09T14:00:11.976Z,6.80
2017-12-09T14:02:42.817Z,6.17
2017-12-09T14:05:15.315Z,6.60
2017-12-09T14:07:46.050Z,6.83
2017-12-09T14:10:16.759Z,7.73
2017-12-09T14:12:47.332Z,6.13
2017-12-09T14:15:18.898Z,6.10
2017-12-09T14:17:50.236Z,6.03
2017-12-09T14:20:21.780Z,5.77
2017-12-09T14:22:53.761Z,5.40
2017-12-09T14:25:25.114Z,5.50
2017-12-09T14:27:55.614Z,6.20
2017-12-09T14:30:26.895Z,5.23
2017-12-09T14:32:57.645Z,5.40
2017-12-09T14:35:28.217Z,5.87
2017-12-09T14:38:00.610Z,5.10
2017-12-09T14:40:31.893Z,5.07
2017-12-09T14:43:02.370Z,5.87
2017-12-09T14:45:33.186Z,5.50
2017-12-09T14:48:03.681Z,6.33
2017-12-09T14:50:34.531Z,5.77
2017-12-09T14:53:04.991Z,6.53
2017-12-09T14:55:35.482Z,6.93
2017-12-09T14:58:05.962Z,6.10
2017-12-09T15:00:37.217Z,6.27
2017-12-09T15:03:08.778Z,6.70
2017-12-09T15:05:39.305Z,5.90
2017-12-09T15:08:10.583Z,5.47
2017-12-09T15:10:41.133Z,6.17
2017-12-09T15:13:11.598Z,6.67
2017-12-09T15:15:43.718Z,5.33
2017-12-09T15:18:14.277Z,5.87
2017-12-09T15:20:44.822Z,5.70
2017-12-09T15:23:16.080Z,6.50
2017-12-09T15:25:47.312Z,6.93
2017-12-09T15:28:19.554Z,6.07
2017-12-09T15:30:50.054Z,5.37
2017-12-09T15:33:21.566Z,6.33
2017-12-09T15:35:54.494Z,5.60
2017-12-09T15:38:24.978Z,5.30
2017-12-09T15:40:56.242Z,5.57
2017-12-09T15:43:26.651Z,6.63
2017-12-09T15:45:58.156Z,5.03
2017-12-09T15:48:28.606Z,5.80
2017-12-09T15:51:00.702Z,6.20
2017-12-09T15:53:31.942Z,6.30
2017-12-09T15:56:04.132Z,5.27
2017-12-09T15:58:35.386Z,6.07
2017-12-09T16:01:05.999Z,5.20
2017-12-09T16:03:36.804Z,5.47
2017-12-09T16:06:09.151Z,5.60
2017-12-09T16:08:40.423Z,6.53
2017-12-09T16:11:11.529Z,6.20
2017-12-09T16:13:41.980Z,5.97
2017-12-09T16:16:12.676Z,5.93
2017-12-09T16:18:43.673Z,5.80
2017-12-09T16:21:15.994Z,7.77
2017-12-09T16:23:46.466Z,5.87
2017-12-09T16:26:18.139Z,7.40
2017-12-09T16:28:49.377Z,5.73
2017-12-09T16:31:21.567Z,4.97
2017-12-09T16:33:52.474Z,6.00
2017-12-09T16:36:22.944Z,5.90
2017-12-09T16:38:53.782Z,5.30
2017-12-09T16:41:24.594Z,6.17
2017-12-09T16:43:55.828Z,7.07
2017-12-09T16:46:28.521Z,6.43
2017-12-09T16:48:59.374Z,6.50
2017-12-09T16:51:31.311Z,6.70
2017-12-09T16:54:02.565Z,6.80
2017-12-09T16:56:33.081Z,5.97
2017-12-09T16:59:04.654Z,7.60
2017-12-09T17:01:35.443Z,7.33
2017-12-09T17:04:05.962Z,6.47
2017-12-09T17:06:36.452Z,6.63
2017-12-09T17:09:07.447Z,6.80
2017-12-09T17:11:37.930Z,6.63
2017-12-09T17:14:08.396Z,7.00
2017-12-09T17:16:39.084Z,6.90
2017-12-09T17:19:09.560Z,6.83
2017-12-09T17:21:40.299Z,6.80
2017-12-09T17:24:10.770Z,6.60
2017-12-09T17:26:41.258Z,7.70
2017-12-09T17:29:11.724Z,7.43
2017-12-09T17:31:42.533Z,7.20
2017-12-09T17:34:13.989Z,6.60
2017-12-09T17:36:45.184Z,7.00
2017-12-09T17:39:16.042Z,7.13
2017-12-09T17:41:46.527Z,7.20
2017-12-09T17:44:16.903Z,6.80
2017-12-09T17:46:48.187Z,7.60
2017-12-09T17:49:18.666Z,6.80
2017-12-09T17:51:49.503Z,7.90
2017-12-09T17:54:20.007Z,7.70
2017-12-09T17:56:50.832Z,7.50
2017-12-09T17:59:21.337Z,8.13
2017-12-09T18:01:52.608Z,7.23
2017-12-09T18:04:23.510Z,8.40
2017-12-09T18:06:54.728Z,8.63
2017-12-09T18:09:26.068Z,7.73
2017-12-09T18:11:56.567Z,8.70
2017-12-09T18:14:27.056Z,8.20
2017-12-09T18:16:58.318Z,9.40
2017-12-09T18:19:30.193Z,8.03
2017-12-09T18:22:00.822Z,7.90
2017-12-09T18:24:31.192Z,7.73
2017-12-09T18:27:02.670Z,6.87
2017-12-09T18:29:33.915Z,8.70
2017-12-09T18:32:05.190Z,7.87
2017-12-09T18:34:35.977Z,9.40
2017-12-09T18:37:06.782Z,8.10
2017-12-09T18:39:37.588Z,8.10
2017-12-09T18:42:08.454Z,8.30
2017-12-09T18:44:38.922Z,8.40
2017-12-09T18:47:09.358Z,9.13
2017-12-09T18:49:40.893Z,8.27
2017-12-09T18:52:12.302Z,7.77
2017-12-09T18:54:42.798Z,8.57
2017-12-09T18:57:14.059Z,7.80
2017-12-09T18:59:44.535Z,8.60
2017-12-09T19:02:15.056Z,8.50
2017-12-09T19:04:45.950Z,9.90
2017-12-09T19:07:16.415Z,9.67
2017-12-09T19:09:47.299Z,8.60
2017-12-09T19:12:18.818Z,10.00
2017-12-09T19:14:49.393Z,9.97
2017-12-09T19:17:20.961Z,7.43
2017-12-09T19:19:51.456Z,9.57
2017-12-09T19:22:23.070Z,9.30
2017-12-09T19:24:53.627Z,9.17
2017-12-09T19:27:24.464Z,10.10
2017-12-09T19:29:54.972Z,9.70
2017-12-09T19:32:25.495Z,10.13
2017-12-09T19:34:55.902Z,9.83
2017-12-09T19:37:26.334Z,10.03
2017-12-09T19:39:58.030Z,10.17
2017-12-09T19:42:28.470Z,9.83
2017-12-09T19:44:59.741Z,8.83
2017-12-09T19:47:30.368Z,9.80
2017-12-09T19:50:01.793Z,9.10
2017-12-09T19:52:32.632Z,9.73
2017-12-09T19:55:03.875Z,10.07
2017-12-09T19:57:35.170Z,11.33
2017-12-09T20:00:05.689Z,11.73
2017-12-09T20:02:36.411Z,10.67
2017-12-09T20:05:06.886Z,10.50
2017-12-09T20:07:37.665Z,9.80
2017-12-09T20:10:09.127Z,10.77
2017-12-09T20:12:39.923Z,10.63
2017-12-09T20:15:10.404Z,10.20
2017-12-09T20:17:40.889Z,11.03
2017-12-09T20:20:14.284Z,10.50
2017-12-09T20:22:45.541Z,11.57
2017-12-09T20:25:16.770Z,10.83
2017-12-09T20:27:47.411Z,10.43
2017-12-09T20:30:18.924Z,11.13
2017-12-09T20:32:50.320Z,11.83
2017-12-09T20:35:21.567Z,11.67
2017-12-09T20:37:52.830Z,12.37
2017-12-09T20:40:23.537Z,10.90
2017-12-09T20:42:54.783Z,10.33
2017-12-09T20:45:26.319Z,10.53
2017-12-09T20:47:57.797Z,10.13
2017-12-09T20:50:29.006Z,9.87
2017-12-09T20:52:59.864Z,11.23
2017-12-09T20:55:31.621Z,10.93
2017-12-09T20:58:03.152Z,9.60
2017-12-09T21:00:34.516Z,10.80
2017-12-09T21:03:05.001Z,10.00
2017-12-09T21:05:37.014Z,10.67
2017-12-09T21:08:08.857Z,11.67
2017-12-09T21:10:40.510Z,12.13
2017-12-09T21:13:11.309Z,11.93
2017-12-09T21:15:42.646Z,11.20
2017-12-09T21:18:13.124Z,10.57
2017-12-09T21:20:43.572Z,10.37
2017-12-09T21:23:16.916Z,10.90
2017-12-09T21:25:48.943Z,10.93
2017-12-09T21:28:20.188Z,11.90
2017-12-09T21:30:56.754Z,12.17
2017-12-09T21:33:28.030Z,10.47
2017-12-09T21:35:58.811Z,10.57
2017-12-09T21:38:29.330Z,12.10
2017-12-09T21:41:00.875Z,14.77
2017-12-09T21:43:35.107Z,16.87
2017-12-09T21:46:06.354Z,14.63
2017-12-09T21:48:37.435Z,14.17
2017-12-09T21:51:09.450Z,15.40
2017-12-09T21:53:40.320Z,15.30
2017-12-09T21:56:11.845Z,15.13
2017-12-09T21:58:43.316Z,14.73
2017-12-09T22:01:14.869Z,15.50
2017-12-09T22:03:46.120Z,15.73
2017-12-09T22:06:18.068Z,17.03
2017-12-09T22:08:49.532Z,15.30
2017-12-09T22:11:22.039Z,13.60
2017-12-09T22:13:52.508Z,15.83
2017-12-09T22:16:23.265Z,13.57
2017-12-09T22:18:54.486Z,15.60
2017-12-09T22:21:24.940Z,15.73
2017-12-09T22:23:56.457Z,16.37
2017-12-09T22:26:27.672Z,17.10
2017-12-09T22:28:58.445Z,16.20
2017-12-09T22:31:28.928Z,15.43
2017-12-09T22:34:00.015Z,15.70
2017-12-09T22:36:30.727Z,15.30
2017-12-09T22:39:02.081Z,14.47
2017-12-09T22:41:32.908Z,16.30
2017-12-09T22:44:04.803Z,16.37
2017-12-09T22:46:36.210Z,16.80
2017-12-09T22:49:07.016Z,16.70
2017-12-09T22:51:38.595Z,16.50
2017-12-09T22:54:13.079Z,16.00
2017-12-09T22:56:45.274Z,17.20
2017-12-09T22:59:17.026Z,15.73
2017-12-09T23:01:48.145Z,15.30
2017-12-09T23:04:20.927Z,17.97
2017-12-09T23:06:54.454Z,17.70
2017-12-09T23:09:25.251Z,15.13
2017-12-09T23:11:56.381Z,17.03
2017-12-09T23:14:29.756Z,15.77
2017-12-09T23:17:00.254Z,14.57
2017-12-09T23:19:30.700Z,15.30
2017-12-09T23:22:02.043Z,12.67
2017-12-09T23:24:32.771Z,12.60
2017-12-09T23:27:03.241Z,13.37
2017-12-09T23:29:33.756Z,14.80
2017-12-09T23:32:04.220Z,12.20
2017-12-09T23:34:35.464Z,12.83
2017-12-09T23:37:08.429Z,12.33
2017-12-09T23:39:38.884Z,12.17
2017-12-09T23:42:11.621Z,12.37
2017-12-09T23:44:42.096Z,10.87
2017-12-09T23:47:13.341Z,11.37
2017-12-09T23:49:45.208Z,9.53
2017-12-09T23:52:18.322Z,9.63
2017-12-09T23:54:50.850Z,10.50
2017-12-09T23:57:21.321Z,10.33
2017-12-09T23:59:52.419Z,9.90
